Vb Saint Marc — FV6094 — position and weather

sailwx.info

Track history (hours):
 
Tides and Currents Weather Stations Pressure Air Temp Water Temp Dewpoint Dewpoint Depression Visibility Wind Speed Wind Dir Waves Ship Positions

Vb Saint Marc

Last reported at 2017-Sep-19 20:30 UTC. Time now 2017-Sep-19 20:34 UTC.
Position N 47°18' W 002°09'.

Length 30 m; draft 5 m.

Type: Tug. MMSI: 227005270.

Date/timePositionNaut miles runAvg speedWind from/ knotsBaromVisibWave heightAir tempDewpointWater temp
2017-Sep-19 20:30N 47°18' W 002°09'0 0.0
2017-Sep-19 20:00N 47°18' W 002°09'0 0.0
2017-Sep-19 19:30N 47°18' W 002°09'0 0.0
2017-Sep-19 19:00N 47°18' W 002°09'0 0.0
2017-Sep-19 18:30N 47°18' W 002°09'0 0.0
2017-Sep-19 18:00N 47°18' W 002°09'0 0.0
2017-Sep-19 17:23N 47°18' W 002°09'0 0.0
2017-Sep-19 16:58N 47°18' W 002°09'0 0.0
2017-Sep-19 16:28N 47°18' W 002°09'0 0.0
2017-Sep-19 15:59N 47°18' W 002°09'0 0.0
2017-Sep-19 15:30N 47°18' W 002°09'0 0.0
2017-Sep-19 15:00N 47°18' W 002°09'0 0.0
2017-Sep-19 11:05N 47°18' W 002°09'0 0.0
2017-Sep-19 10:36N 47°18' W 002°09'0 0.0
2017-Sep-19 10:30N 47°18' W 002°09'0 0.0
2017-Sep-19 08:04N 47°18' W 002°09'0 0.0
2017-Sep-19 08:00N 47°18' W 002°09'2 4.6
2017-Sep-19 07:30N 47°16' W 002°11'1 0.2
2017-Sep-19 04:28N 47°16' W 002°12'4 7.9
2017-Sep-19 04:00N 47°18' W 002°08'1 1.5
2017-Sep-19 03:30N 47°18' W 002°07'0 0.0
2017-Sep-19 03:00N 47°18' W 002°07'0 0.0
2017-Sep-19 02:30N 47°18' W 002°07'4 8.9
2017-Sep-19 02:00N 47°16' W 002°12'0 0.0
2017-Sep-18 15:04N 47°16' W 002°12'0 5.2
2017-Sep-18 15:00N 47°16' W 002°12'5 9.7
2017-Sep-18 14:30N 47°18' W 002°05'1 1.5
2017-Sep-18 14:00N 47°18' W 002°04'4 7.9
2017-Sep-18 13:30N 47°17' W 002°10'2 0.2
2017-Sep-18 04:11N 47°16' W 002°12'0 0.0
2017-Sep-18 04:00N 47°16' W 002°12'2 3.8
2017-Sep-18 03:30N 47°17' W 002°10'3 5.8
2017-Sep-18 03:00N 47°18' W 002°06'0 0.2
2017-Sep-18 02:30N 47°18' W 002°06'0 0.0
2017-Sep-18 02:00N 47°18' W 002°06'3 5.2
2017-Sep-18 01:30N 47°17' W 002°09'2 4.5
2017-Sep-18 01:00N 47°16' W 002°12'0 0.0
2017-Sep-18 00:30N 47°16' W 002°12'0 0.0
2017-Sep-17 23:14N 47°16' W 002°12'0 0.0
2017-Sep-17 23:00N 47°16' W 002°12'0 0.0
2017-Sep-17 22:22N 47°16' W 002°12'0 0.0
2017-Sep-17 22:00N 47°16' W 002°12'0 0.0
2017-Sep-17 21:27N 47°16' W 002°12'0 0.0
2017-Sep-17 16:50N 47°16' W 002°12'0 0.0
2017-Sep-17 16:10N 47°16' W 002°12'0 0.0
2017-Sep-17 16:00N 47°16' W 002°12'0 0.0
2017-Sep-17 15:30N 47°16' W 002°12'0 0.0
2017-Sep-17 14:48N 47°16' W 002°12'0 0.0
2017-Sep-17 12:49N 47°16' W 002°12'0 0.0
2017-Sep-17 09:06N 47°16' W 002°12'1 9.8
2017-Sep-17 09:00N 47°17' W 002°11'4 6.9
2017-Sep-17 08:30N 47°18' W 002°06'0 0.3
2017-Sep-17 08:00N 47°18' W 002°06'0 0.0
2017-Sep-17 07:30N 47°18' W 002°06'2 5.0
2017-Sep-17 07:00N 47°17' W 002°10'2 1.4
2017-Sep-17 05:25N 47°16' W 002°12'0 0.0
2017-Sep-17 04:58N 47°16' W 002°12'0 0.0
2017-Sep-17 04:27N 47°16' W 002°12'0 0.0
2017-Sep-17 04:00N 47°16' W 002°12'0 0.0
2017-Sep-17 03:29N 47°16' W 002°12'0 0.0
2017-Sep-17 03:00N 47°16' W 002°12'0 0.0
2017-Sep-17 02:30N 47°16' W 002°12'0 0.0
2017-Sep-17 02:00N 47°16' W 002°12'0 0.0
2017-Sep-17 01:28N 47°16' W 002°12'0 0.0
2017-Sep-17 01:00N 47°16' W 002°12'0 0.0
2017-Sep-17 00:30N 47°16' W 002°12'0 0.0
2017-Sep-16 23:53N 47°16' W 002°12'0 0.0
2017-Sep-16 23:30N 47°16' W 002°12'0 0.0
2017-Sep-16 22:49N 47°16' W 002°12'0 0.0
2017-Sep-16 22:29N 47°16' W 002°12'0 0.0
2017-Sep-16 21:55N 47°16' W 002°12'0 0.0
2017-Sep-16 21:30N 47°16' W 002°12'0 0.0
2017-Sep-16 20:52N 47°16' W 002°12'3 8.8
2017-Sep-16 20:30N 47°18' W 002°08'3 5.5
2017-Sep-16 20:00N 47°18' W 002°04'0 0.5
2017-Sep-16 19:30N 47°18' W 002°04'2 4.6
2017-Sep-16 19:00N 47°18' W 002°08'3 6.9
2017-Sep-16 18:30N 47°16' W 002°12'0 0.0
2017-Sep-16 18:00N 47°16' W 002°12'0 0.0
2017-Sep-16 17:30N 47°16' W 002°12'0 0.0
2017-Sep-16 17:00N 47°16' W 002°12'0 0.0
2017-Sep-16 16:30N 47°16' W 002°12'0 0.0
2017-Sep-16 16:00N 47°16' W 002°12'1 1.8
2017-Sep-16 15:30N 47°16' W 002°11'4 7.9
2017-Sep-16 15:00N 47°18' W 002°06'0 0.0
2017-Sep-16 14:30N 47°18' W 002°06'0 0.1
2017-Sep-16 14:00N 47°18' W 002°06'2 3.1
2017-Sep-16 13:30N 47°18' W 002°08'2 3.7
2017-Sep-16 13:00N 47°17' W 002°10'2 3.3
2017-Sep-16 12:30N 47°16' W 002°12'0 0.8
2017-Sep-16 12:00N 47°16' W 002°12'0 0.8
2017-Sep-16 11:30N 47°17' W 002°12'1 1.4
2017-Sep-16 11:00N 47°16' W 002°12'3 5.6
2017-Sep-16 10:30N 47°18' W 002°09'0 0.2
2017-Sep-16 10:00N 47°18' W 002°09'3 1.6
2017-Sep-16 08:19N 47°16' W 002°12'0 0.0
2017-Sep-16 07:58N 47°16' W 002°12'0 0.0
2017-Sep-16 07:27N 47°16' W 002°12'0 0.0
2017-Sep-16 06:52N 47°16' W 002°12'0 0.0
2017-Sep-16 06:27N 47°16' W 002°12'0 0.0
2017-Sep-16 05:58N 47°16' W 002°12'0 0.0
2017-Sep-16 05:20N 47°16' W 002°12'0 0.0
2017-Sep-16 04:55N 47°16' W 002°12'0 0.0
2017-Sep-16 04:30N 47°16' W 002°12'0 0.0
2017-Sep-16 04:00N 47°16' W 002°12'0 0.0
2017-Sep-16 03:26N 47°16' W 002°12'0 0.0
2017-Sep-16 03:00N 47°16' W 002°12'0 0.0
2017-Sep-16 01:27N 47°16' W 002°12'0 0.0
2017-Sep-15 23:55N 47°16' W 002°12'0 0.0
2017-Sep-15 22:55N 47°16' W 002°12'0 0.0
2017-Sep-15 21:18N 47°16' W 002°12'0 0.0
2017-Sep-15 20:09N 47°16' W 002°12'0 0.0
2017-Sep-15 20:00N 47°16' W 002°12'0 0.0
2017-Sep-15 18:39N 47°16' W 002°12'0 0.0
2017-Sep-15 14:49N 47°16' W 002°12'3 9.6
2017-Sep-15 14:30N 47°18' W 002°09'2 3.4
2017-Sep-15 14:00N 47°18' W 002°06'0 0.2
2017-Sep-15 13:30N 47°18' W 002°06'0 0.0
2017-Sep-15 13:00N 47°18' W 002°06'1 1.4
2017-Sep-15 12:30N 47°18' W 002°07'3 5.6
2017-Sep-15 12:00N 47°17' W 002°11'1 2.1
2017-Sep-15 11:26N 47°16' W 002°12'0 0.0
2017-Sep-15 10:52N 47°16' W 002°12'0 0.0
2017-Sep-15 10:30N 47°16' W 002°12'0 0.0
2017-Sep-15 09:59N 47°16' W 002°12'0 0.0
2017-Sep-15 09:03N 47°16' W 002°12'0 0.0
2017-Sep-15 08:55N 47°16' W 002°12'0 0.0
2017-Sep-15 08:17N 47°16' W 002°12'0 0.0
2017-Sep-15 07:39N 47°16' W 002°12'0 0.0
2017-Sep-15 07:26N 47°16' W 002°12'0 0.1
2017-Sep-15 07:00N 47°16' W 002°12'4 7.9
2017-Sep-15 06:30N 47°18' W 002°07'2 3.2
2017-Sep-15 06:00N 47°18' W 002°05'0 0.0
2017-Sep-15 05:30N 47°18' W 002°05'0 0.0
2017-Sep-15 05:00N 47°18' W 002°05'0 0.0
2017-Sep-15 04:30N 47°18' W 002°05'0 0.0
2017-Sep-15 04:00N 47°18' W 002°05'0 0.0
2017-Sep-15 03:30N 47°18' W 002°05'0 0.0
2017-Sep-15 03:00N 47°18' W 002°05'0 0.0
2017-Sep-15 02:30N 47°18' W 002°05'0 0.0
2017-Sep-15 02:00N 47°18' W 002°05'0 0.0
2017-Sep-15 01:30N 47°18' W 002°05'0 0.0
2017-Sep-15 01:00N 47°18' W 002°05'0 0.0
2017-Sep-15 00:30N 47°18' W 002°05'0 0.0
2017-Sep-15 00:00N 47°18' W 002°05'0 0.0
2017-Sep-14 23:30N 47°18' W 002°05'0 0.0
2017-Sep-14 23:00N 47°18' W 002°05'0 0.0
2017-Sep-14 22:30N 47°18' W 002°05'0 0.0
2017-Sep-14 22:00N 47°18' W 002°05'0 0.0
2017-Sep-14 21:30N 47°18' W 002°05'0 0.0
2017-Sep-14 21:00N 47°18' W 002°05'0 0.0
2017-Sep-14 20:30N 47°18' W 002°05'0 0.0
2017-Sep-14 20:00N 47°18' W 002°05'0 0.0
2017-Sep-14 19:28N 47°18' W 002°05'0 0.0
2017-Sep-14 18:57N 47°18' W 002°05'0 0.0
2017-Sep-14 18:30N 47°18' W 002°05'0 0.0
2017-Sep-14 18:00N 47°18' W 002°05'0 0.0
2017-Sep-14 17:30N 47°18' W 002°05'0 0.0
2017-Sep-14 17:00N 47°18' W 002°05'0 0.0
2017-Sep-14 16:30N 47°18' W 002°05'0 0.0
2017-Sep-14 16:00N 47°18' W 002°05'0 0.0
2017-Sep-14 15:30N 47°18' W 002°05'0 0.0
2017-Sep-14 15:00N 47°18' W 002°05'0 0.0
2017-Sep-14 14:20N 47°18' W 002°05'0 0.0
2017-Sep-14 13:09N 47°18' W 002°05'0 0.0
2017-Sep-14 12:51N 47°18' W 002°05'0 0.0
2017-Sep-14 12:25N 47°18' W 002°05'0 0.0
2017-Sep-14 11:47N 47°18' W 002°05'0 0.0
2017-Sep-14 11:28N 47°18' W 002°05'0 0.0
2017-Sep-14 11:00N 47°18' W 002°05'0 0.0
2017-Sep-14 10:26N 47°18' W 002°05'0 0.0
2017-Sep-14 09:59N 47°18' W 002°05'0 0.0
2017-Sep-14 09:30N 47°18' W 002°05'0 0.0
2017-Sep-14 08:56N 47°18' W 002°05'0 0.0
2017-Sep-14 08:21N 47°18' W 002°05'0 0.0
2017-Sep-14 08:00N 47°18' W 002°05'0 0.0
2017-Sep-14 07:30N 47°18' W 002°05'0 0.0
2017-Sep-14 07:00N 47°18' W 002°05'0 0.0
2017-Sep-14 06:30N 47°18' W 002°05'0 0.0
2017-Sep-14 06:00N 47°18' W 002°05'3 5.7
2017-Sep-14 05:30N 47°18' W 002°09'2 4.2
2017-Sep-14 05:00N 47°18' W 002°06'0 0.3
2017-Sep-14 04:30N 47°18' W 002°06'1 1.2
2017-Sep-14 04:00N 47°18' W 002°05'0 0.0
2017-Sep-14 03:31N 47°18' W 002°05'3 6.2
2017-Sep-14 03:01N 47°18' W 002°09'0 0.5
2017-Sep-14 02:30N 47°18' W 002°09'0 0.1
2017-Sep-14 02:00N 47°18' W 002°09'3 4.8
2017-Sep-14 01:29N 47°16' W 002°12'0 0.0
2017-Sep-14 00:55N 47°16' W 002°12'0 0.0
2017-Sep-14 00:27N 47°16' W 002°12'0 0.0
2017-Sep-13 23:56N 47°16' W 002°12'0 0.0
2017-Sep-13 23:29N 47°16' W 002°12'0 0.0
2017-Sep-13 22:25N 47°16' W 002°12'0 0.0
2017-Sep-13 21:51N 47°16' W 002°12'0 0.0
2017-Sep-13 21:25N 47°16' W 002°12'0 0.0
2017-Sep-13 18:47N 47°16' W 002°12'0 0.0
2017-Sep-13 18:18N 47°16' W 002°12'0 0.3
2017-Sep-13 16:40N 47°16' W 002°11'210.0
2017-Sep-13 16:29N 47°18' W 002°09'1 3.0
2017-Sep-13 15:59N 47°18' W 002°07'0 0.3
2017-Sep-13 15:30N 47°18' W 002°07'1 2.5
2017-Sep-13 15:00N 47°18' W 002°09'2 4.2
2017-Sep-13 14:29N 47°16' W 002°11'0 0.2
2017-Sep-13 12:18N 47°16' W 002°12'0 0.0
2017-Sep-13 11:29N 47°16' W 002°12'5 7.4
2017-Sep-13 10:48N 47°18' W 002°05'0 0.2
2017-Sep-13 10:24N 47°18' W 002°05'1 1.3
2017-Sep-13 09:59N 47°18' W 002°06'0 0.0
2017-Sep-13 09:30N 47°18' W 002°06'0 0.1
2017-Sep-13 09:00N 47°18' W 002°06'1 1.2
2017-Sep-13 08:30N 47°18' W 002°07'3 5.6
2017-Sep-13 08:00N 47°17' W 002°11'1 0.3
2017-Sep-13 04:13N 47°16' W 002°12'0 0.0
2017-Sep-13 03:56N 47°16' W 002°12'0 0.0
2017-Sep-13 02:12N 47°16' W 002°12'0 0.0
2017-Sep-13 01:54N 47°16' W 002°12'0 0.0
2017-Sep-12 21:58N 47°16' W 002°12'0 0.0
2017-Sep-12 21:27N 47°16' W 002°12'0 0.0
2017-Sep-12 20:55N 47°16' W 002°12'0 0.0
2017-Sep-12 08:51N 47°16' W 002°12'3 8.2
2017-Sep-12 08:31N 47°18' W 002°08'1 2.7
2017-Sep-12 08:00N 47°18' W 002°07'0 0.0
2017-Sep-12 07:30N 47°18' W 002°07'0 0.4
2017-Sep-12 07:01N 47°18' W 002°07'2 4.6
2017-Sep-12 06:30N 47°17' W 002°10'2 0.2
2017-Sep-11 19:58N 47°16' W 002°12'4 9.4
2017-Sep-11 19:30N 47°18' W 002°07'0 0.3
2017-Sep-11 19:00N 47°18' W 002°07'0 0.0
2017-Sep-11 18:30N 47°18' W 002°07'1 1.8
2017-Sep-11 18:00N 47°18' W 002°05'0 0.1
2017-Sep-11 17:30N 47°18' W 002°05'1 2.5
2017-Sep-11 17:00N 47°18' W 002°07'2 4.2
2017-Sep-11 16:28N 47°17' W 002°10'2 0.4
2017-Sep-11 11:45N 47°16' W 002°12'0 0.0
2017-Sep-11 09:03N 47°16' W 002°12'0 2.9
2017-Sep-11 09:00N 47°16' W 002°12'3 5.1
2017-Sep-11 08:30N 47°18' W 002°09'0 0.1
2017-Sep-11 08:00N 47°18' W 002°09'1 1.9
2017-Sep-11 07:30N 47°17' W 002°10'2 1.3
2017-Sep-11 06:21N 47°16' W 002°12'0 0.0
2017-Sep-11 03:59N 47°16' W 002°12'0 0.0
2017-Sep-11 03:30N 47°16' W 002°12'3 5.2
2017-Sep-11 03:00N 47°18' W 002°09'0 0.4
2017-Sep-11 02:30N 47°18' W 002°09'2 0.4
2017-Sep-10 21:07N 47°16' W 002°12'0 0.0
2017-Sep-10 20:49N 47°16' W 002°12'0 0.0
2017-Sep-10 20:04N 47°16' W 002°12'0 0.0
2017-Sep-10 19:51N 47°16' W 002°12'0 0.0
2017-Sep-10 19:27N 47°16' W 002°12'0 0.0
2017-Sep-10 19:00N 47°16' W 002°12'0 0.0
2017-Sep-10 18:24N 47°16' W 002°12'0 0.0
2017-Sep-10 17:53N 47°16' W 002°12'0 0.0
2017-Sep-10 17:30N 47°16' W 002°12'0 0.0
2017-Sep-10 08:37N 47°16' W 002°12'0 0.0
2017-Sep-10 08:31N 47°16' W 002°12'0 0.0
2017-Sep-10 07:57N 47°16' W 002°12'0 0.0
2017-Sep-10 07:14N 47°16' W 002°12'0 0.0
2017-Sep-10 06:59N 47°16' W 002°12'3 6.1
2017-Sep-10 06:30N 47°18' W 002°09'0 0.0
2017-Sep-10 06:00N 47°18' W 002°09'0 0.0
2017-Sep-10 05:30N 47°18' W 002°09'0 0.0
2017-Sep-10 05:00N 47°18' W 002°09'0 0.0
2017-Sep-10 04:30N 47°18' W 002°09'0 0.0
2017-Sep-10 04:00N 47°18' W 002°09'0 0.0
2017-Sep-10 03:30N 47°18' W 002°09'0 0.0
2017-Sep-10 03:01N 47°18' W 002°09'0 0.0
2017-Sep-10 02:30N 47°18' W 002°09'0 0.0
2017-Sep-10 02:00N 47°18' W 002°09'0 0.0
2017-Sep-10 01:31N 47°18' W 002°09'0 0.0
2017-Sep-10 01:00N 47°18' W 002°09'0 0.0
2017-Sep-10 00:30N 47°18' W 002°09'0 0.0
2017-Sep-10 00:00N 47°18' W 002°09'0 0.0
2017-Sep-09 23:31N 47°18' W 002°09'0 0.0
2017-Sep-09 23:01N 47°18' W 002°09'0 0.0
2017-Sep-09 22:30N 47°18' W 002°09'0 0.0
2017-Sep-09 22:00N 47°18' W 002°09'0 0.0
2017-Sep-09 21:31N 47°18' W 002°09'0 0.0
2017-Sep-09 21:00N 47°18' W 002°09'  
Track history (hours):
 
Tides and Currents Weather Stations Pressure Air Temp Water Temp Dewpoint Dewpoint Depression Visibility Wind Speed Wind Dir Waves Ship Positions

Vb Saint Marc

Last reported at 2017-Sep-19 20:30 UTC. Time now 2017-Sep-19 20:34 UTC.
Position N 47°18' W 002°09'.

Length 30 m; draft 5 m.

Type: Tug. MMSI: 227005270.

Date/timePositionNaut miles runAvg speedWind from/ knotsBaromVisibWave heightAir tempDewpointWater temp
2017-Sep-19 20:30N 47°18' W 002°09'0 0.0
2017-Sep-19 20:00N 47°18' W 002°09'0 0.0
2017-Sep-19 19:30N 47°18' W 002°09'0 0.0
2017-Sep-19 19:00N 47°18' W 002°09'0 0.0
2017-Sep-19 18:30N 47°18' W 002°09'0 0.0
2017-Sep-19 18:00N 47°18' W 002°09'0 0.0
2017-Sep-19 17:23N 47°18' W 002°09'0 0.0
2017-Sep-19 16:58N 47°18' W 002°09'0 0.0
2017-Sep-19 16:28N 47°18' W 002°09'0 0.0
2017-Sep-19 15:59N 47°18' W 002°09'0 0.0
2017-Sep-19 15:30N 47°18' W 002°09'0 0.0
2017-Sep-19 15:00N 47°18' W 002°09'0 0.0
2017-Sep-19 11:05N 47°18' W 002°09'0 0.0
2017-Sep-19 10:36N 47°18' W 002°09'0 0.0
2017-Sep-19 10:30N 47°18' W 002°09'0 0.0
2017-Sep-19 08:04N 47°18' W 002°09'0 0.0
2017-Sep-19 08:00N 47°18' W 002°09'2 4.6
2017-Sep-19 07:30N 47°16' W 002°11'1 0.2
2017-Sep-19 04:28N 47°16' W 002°12'4 7.9
2017-Sep-19 04:00N 47°18' W 002°08'1 1.5
2017-Sep-19 03:30N 47°18' W 002°07'0 0.0
2017-Sep-19 03:00N 47°18' W 002°07'0 0.0
2017-Sep-19 02:30N 47°18' W 002°07'4 8.9
2017-Sep-19 02:00N 47°16' W 002°12'0 0.0
2017-Sep-18 15:04N 47°16' W 002°12'0 5.2
2017-Sep-18 15:00N 47°16' W 002°12'5 9.7
2017-Sep-18 14:30N 47°18' W 002°05'1 1.5
2017-Sep-18 14:00N 47°18' W 002°04'4 7.9
2017-Sep-18 13:30N 47°17' W 002°10'2 0.2
2017-Sep-18 04:11N 47°16' W 002°12'0 0.0
2017-Sep-18 04:00N 47°16' W 002°12'2 3.8
2017-Sep-18 03:30N 47°17' W 002°10'3 5.8
2017-Sep-18 03:00N 47°18' W 002°06'0 0.2
2017-Sep-18 02:30N 47°18' W 002°06'0 0.0
2017-Sep-18 02:00N 47°18' W 002°06'3 5.2
2017-Sep-18 01:30N 47°17' W 002°09'2 4.5
2017-Sep-18 01:00N 47°16' W 002°12'0 0.0
2017-Sep-18 00:30N 47°16' W 002°12'0 0.0
2017-Sep-17 23:14N 47°16' W 002°12'0 0.0
2017-Sep-17 23:00N 47°16' W 002°12'0 0.0
2017-Sep-17 22:22N 47°16' W 002°12'0 0.0
2017-Sep-17 22:00N 47°16' W 002°12'0 0.0
2017-Sep-17 21:27N 47°16' W 002°12'0 0.0
2017-Sep-17 16:50N 47°16' W 002°12'0 0.0
2017-Sep-17 16:10N 47°16' W 002°12'0 0.0
2017-Sep-17 16:00N 47°16' W 002°12'0 0.0
2017-Sep-17 15:30N 47°16' W 002°12'0 0.0
2017-Sep-17 14:48N 47°16' W 002°12'0 0.0
2017-Sep-17 12:49N 47°16' W 002°12'0 0.0
2017-Sep-17 09:06N 47°16' W 002°12'1 9.8
2017-Sep-17 09:00N 47°17' W 002°11'4 6.9
2017-Sep-17 08:30N 47°18' W 002°06'0 0.3
2017-Sep-17 08:00N 47°18' W 002°06'0 0.0
2017-Sep-17 07:30N 47°18' W 002°06'2 5.0
2017-Sep-17 07:00N 47°17' W 002°10'2 1.4
2017-Sep-17 05:25N 47°16' W 002°12'0 0.0
2017-Sep-17 04:58N 47°16' W 002°12'0 0.0
2017-Sep-17 04:27N 47°16' W 002°12'0 0.0
2017-Sep-17 04:00N 47°16' W 002°12'0 0.0
2017-Sep-17 03:29N 47°16' W 002°12'0 0.0
2017-Sep-17 03:00N 47°16' W 002°12'0 0.0
2017-Sep-17 02:30N 47°16' W 002°12'0 0.0
2017-Sep-17 02:00N 47°16' W 002°12'0 0.0
2017-Sep-17 01:28N 47°16' W 002°12'0 0.0
2017-Sep-17 01:00N 47°16' W 002°12'0 0.0
2017-Sep-17 00:30N 47°16' W 002°12'0 0.0
2017-Sep-16 23:53N 47°16' W 002°12'0 0.0
2017-Sep-16 23:30N 47°16' W 002°12'0 0.0
2017-Sep-16 22:49N 47°16' W 002°12'0 0.0
2017-Sep-16 22:29N 47°16' W 002°12'0 0.0
2017-Sep-16 21:55N 47°16' W 002°12'0 0.0
2017-Sep-16 21:30N 47°16' W 002°12'0 0.0
2017-Sep-16 20:52N 47°16' W 002°12'3 8.8
2017-Sep-16 20:30N 47°18' W 002°08'3 5.5
2017-Sep-16 20:00N 47°18' W 002°04'0 0.5
2017-Sep-16 19:30N 47°18' W 002°04'2 4.6
2017-Sep-16 19:00N 47°18' W 002°08'3 6.9
2017-Sep-16 18:30N 47°16' W 002°12'0 0.0
2017-Sep-16 18:00N 47°16' W 002°12'0 0.0
2017-Sep-16 17:30N 47°16' W 002°12'0 0.0
2017-Sep-16 17:00N 47°16' W 002°12'0 0.0
2017-Sep-16 16:30N 47°16' W 002°12'0 0.0
2017-Sep-16 16:00N 47°16' W 002°12'1 1.8
2017-Sep-16 15:30N 47°16' W 002°11'4 7.9
2017-Sep-16 15:00N 47°18' W 002°06'0 0.0
2017-Sep-16 14:30N 47°18' W 002°06'0 0.1
2017-Sep-16 14:00N 47°18' W 002°06'2 3.1
2017-Sep-16 13:30N 47°18' W 002°08'2 3.7
2017-Sep-16 13:00N 47°17' W 002°10'2 3.3
2017-Sep-16 12:30N 47°16' W 002°12'0 0.8
2017-Sep-16 12:00N 47°16' W 002°12'0 0.8
2017-Sep-16 11:30N 47°17' W 002°12'1 1.4
2017-Sep-16 11:00N 47°16' W 002°12'3 5.6
2017-Sep-16 10:30N 47°18' W 002°09'0 0.2
2017-Sep-16 10:00N 47°18' W 002°09'3 1.6
2017-Sep-16 08:19N 47°16' W 002°12'0 0.0
2017-Sep-16 07:58N 47°16' W 002°12'0 0.0
2017-Sep-16 07:27N 47°16' W 002°12'0 0.0
2017-Sep-16 06:52N 47°16' W 002°12'0 0.0
2017-Sep-16 06:27N 47°16' W 002°12'0 0.0
2017-Sep-16 05:58N 47°16' W 002°12'0 0.0
2017-Sep-16 05:20N 47°16' W 002°12'0 0.0
2017-Sep-16 04:55N 47°16' W 002°12'0 0.0
2017-Sep-16 04:30N 47°16' W 002°12'0 0.0
2017-Sep-16 04:00N 47°16' W 002°12'0 0.0
2017-Sep-16 03:26N 47°16' W 002°12'0 0.0
2017-Sep-16 03:00N 47°16' W 002°12'0 0.0
2017-Sep-16 01:27N 47°16' W 002°12'0 0.0
2017-Sep-15 23:55N 47°16' W 002°12'0 0.0
2017-Sep-15 22:55N 47°16' W 002°12'0 0.0
2017-Sep-15 21:18N 47°16' W 002°12'0 0.0
2017-Sep-15 20:09N 47°16' W 002°12'0 0.0
2017-Sep-15 20:00N 47°16' W 002°12'0 0.0
2017-Sep-15 18:39N 47°16' W 002°12'0 0.0
2017-Sep-15 14:49N 47°16' W 002°12'3 9.6
2017-Sep-15 14:30N 47°18' W 002°09'2 3.4
2017-Sep-15 14:00N 47°18' W 002°06'0 0.2
2017-Sep-15 13:30N 47°18' W 002°06'0 0.0
2017-Sep-15 13:00N 47°18' W 002°06'1 1.4
2017-Sep-15 12:30N 47°18' W 002°07'3 5.6
2017-Sep-15 12:00N 47°17' W 002°11'1 2.1
2017-Sep-15 11:26N 47°16' W 002°12'0 0.0
2017-Sep-15 10:52N 47°16' W 002°12'0 0.0
2017-Sep-15 10:30N 47°16' W 002°12'0 0.0
2017-Sep-15 09:59N 47°16' W 002°12'0 0.0
2017-Sep-15 09:03N 47°16' W 002°12'0 0.0
2017-Sep-15 08:55N 47°16' W 002°12'0 0.0
2017-Sep-15 08:17N 47°16' W 002°12'0 0.0
2017-Sep-15 07:39N 47°16' W 002°12'0 0.0
2017-Sep-15 07:26N 47°16' W 002°12'0 0.1
2017-Sep-15 07:00N 47°16' W 002°12'4 7.9
2017-Sep-15 06:30N 47°18' W 002°07'2 3.2
2017-Sep-15 06:00N 47°18' W 002°05'0 0.0
2017-Sep-15 05:30N 47°18' W 002°05'0 0.0
2017-Sep-15 05:00N 47°18' W 002°05'0 0.0
2017-Sep-15 04:30N 47°18' W 002°05'0 0.0
2017-Sep-15 04:00N 47°18' W 002°05'0 0.0
2017-Sep-15 03:30N 47°18' W 002°05'0 0.0
2017-Sep-15 03:00N 47°18' W 002°05'0 0.0
2017-Sep-15 02:30N 47°18' W 002°05'0 0.0
2017-Sep-15 02:00N 47°18' W 002°05'0 0.0
2017-Sep-15 01:30N 47°18' W 002°05'0 0.0
2017-Sep-15 01:00N 47°18' W 002°05'0 0.0
2017-Sep-15 00:30N 47°18' W 002°05'0 0.0
2017-Sep-15 00:00N 47°18' W 002°05'0 0.0
2017-Sep-14 23:30N 47°18' W 002°05'0 0.0
2017-Sep-14 23:00N 47°18' W 002°05'0 0.0
2017-Sep-14 22:30N 47°18' W 002°05'0 0.0
2017-Sep-14 22:00N 47°18' W 002°05'0 0.0
2017-Sep-14 21:30N 47°18' W 002°05'0 0.0
2017-Sep-14 21:00N 47°18' W 002°05'0 0.0
2017-Sep-14 20:30N 47°18' W 002°05'0 0.0
2017-Sep-14 20:00N 47°18' W 002°05'0 0.0
2017-Sep-14 19:28N 47°18' W 002°05'0 0.0
2017-Sep-14 18:57N 47°18' W 002°05'0 0.0
2017-Sep-14 18:30N 47°18' W 002°05'0 0.0
2017-Sep-14 18:00N 47°18' W 002°05'0 0.0
2017-Sep-14 17:30N 47°18' W 002°05'0 0.0
2017-Sep-14 17:00N 47°18' W 002°05'0 0.0
2017-Sep-14 16:30N 47°18' W 002°05'0 0.0
2017-Sep-14 16:00N 47°18' W 002°05'0 0.0
2017-Sep-14 15:30N 47°18' W 002°05'0 0.0
2017-Sep-14 15:00N 47°18' W 002°05'0 0.0
2017-Sep-14 14:20N 47°18' W 002°05'0 0.0
2017-Sep-14 13:09N 47°18' W 002°05'0 0.0
2017-Sep-14 12:51N 47°18' W 002°05'0 0.0
2017-Sep-14 12:25N 47°18' W 002°05'0 0.0
2017-Sep-14 11:47N 47°18' W 002°05'0 0.0
2017-Sep-14 11:28N 47°18' W 002°05'0 0.0
2017-Sep-14 11:00N 47°18' W 002°05'0 0.0
2017-Sep-14 10:26N 47°18' W 002°05'0 0.0
2017-Sep-14 09:59N 47°18' W 002°05'0 0.0
2017-Sep-14 09:30N 47°18' W 002°05'0 0.0
2017-Sep-14 08:56N 47°18' W 002°05'0 0.0
2017-Sep-14 08:21N 47°18' W 002°05'0 0.0
2017-Sep-14 08:00N 47°18' W 002°05'0 0.0
2017-Sep-14 07:30N 47°18' W 002°05'0 0.0
2017-Sep-14 07:00N 47°18' W 002°05'0 0.0
2017-Sep-14 06:30N 47°18' W 002°05'0 0.0
2017-Sep-14 06:00N 47°18' W 002°05'3 5.7
2017-Sep-14 05:30N 47°18' W 002°09'2 4.2
2017-Sep-14 05:00N 47°18' W 002°06'0 0.3
2017-Sep-14 04:30N 47°18' W 002°06'1 1.2
2017-Sep-14 04:00N 47°18' W 002°05'0 0.0
2017-Sep-14 03:31N 47°18' W 002°05'3 6.2
2017-Sep-14 03:01N 47°18' W 002°09'0 0.5
2017-Sep-14 02:30N 47°18' W 002°09'0 0.1
2017-Sep-14 02:00N 47°18' W 002°09'3 4.8
2017-Sep-14 01:29N 47°16' W 002°12'0 0.0
2017-Sep-14 00:55N 47°16' W 002°12'0 0.0
2017-Sep-14 00:27N 47°16' W 002°12'0 0.0
2017-Sep-13 23:56N 47°16' W 002°12'0 0.0
2017-Sep-13 23:29N 47°16' W 002°12'0 0.0
2017-Sep-13 22:25N 47°16' W 002°12'0 0.0
2017-Sep-13 21:51N 47°16' W 002°12'0 0.0
2017-Sep-13 21:25N 47°16' W 002°12'0 0.0
2017-Sep-13 18:47N 47°16' W 002°12'0 0.0
2017-Sep-13 18:18N 47°16' W 002°12'0 0.3
2017-Sep-13 16:40N 47°16' W 002°11'210.0
2017-Sep-13 16:29N 47°18' W 002°09'1 3.0
2017-Sep-13 15:59N 47°18' W 002°07'0 0.3
2017-Sep-13 15:30N 47°18' W 002°07'1 2.5
2017-Sep-13 15:00N 47°18' W 002°09'2 4.2
2017-Sep-13 14:29N 47°16' W 002°11'0 0.2
2017-Sep-13 12:18N 47°16' W 002°12'0 0.0
2017-Sep-13 11:29N 47°16' W 002°12'5 7.4
2017-Sep-13 10:48N 47°18' W 002°05'0 0.2
2017-Sep-13 10:24N 47°18' W 002°05'1 1.3
2017-Sep-13 09:59N 47°18' W 002°06'0 0.0
2017-Sep-13 09:30N 47°18' W 002°06'0 0.1
2017-Sep-13 09:00N 47°18' W 002°06'1 1.2
2017-Sep-13 08:30N 47°18' W 002°07'3 5.6
2017-Sep-13 08:00N 47°17' W 002°11'1 0.3
2017-Sep-13 04:13N 47°16' W 002°12'0 0.0
2017-Sep-13 03:56N 47°16' W 002°12'0 0.0
2017-Sep-13 02:12N 47°16' W 002°12'0 0.0
2017-Sep-13 01:54N 47°16' W 002°12'0 0.0
2017-Sep-12 21:58N 47°16' W 002°12'0 0.0
2017-Sep-12 21:27N 47°16' W 002°12'0 0.0
2017-Sep-12 20:55N 47°16' W 002°12'0 0.0
2017-Sep-12 08:51N 47°16' W 002°12'3 8.2
2017-Sep-12 08:31N 47°18' W 002°08'1 2.7
2017-Sep-12 08:00N 47°18' W 002°07'0 0.0
2017-Sep-12 07:30N 47°18' W 002°07'0 0.4
2017-Sep-12 07:01N 47°18' W 002°07'2 4.6
2017-Sep-12 06:30N 47°17' W 002°10'2 0.2
2017-Sep-11 19:58N 47°16' W 002°12'4 9.4
2017-Sep-11 19:30N 47°18' W 002°07'0 0.3
2017-Sep-11 19:00N 47°18' W 002°07'0 0.0
2017-Sep-11 18:30N 47°18' W 002°07'1 1.8
2017-Sep-11 18:00N 47°18' W 002°05'0 0.1
2017-Sep-11 17:30N 47°18' W 002°05'1 2.5
2017-Sep-11 17:00N 47°18' W 002°07'2 4.2
2017-Sep-11 16:28N 47°17' W 002°10'2 0.4
2017-Sep-11 11:45N 47°16' W 002°12'0 0.0
2017-Sep-11 09:03N 47°16' W 002°12'0 2.9
2017-Sep-11 09:00N 47°16' W 002°12'3 5.1
2017-Sep-11 08:30N 47°18' W 002°09'0 0.1
2017-Sep-11 08:00N 47°18' W 002°09'1 1.9
2017-Sep-11 07:30N 47°17' W 002°10'2 1.3
2017-Sep-11 06:21N 47°16' W 002°12'0 0.0
2017-Sep-11 03:59N 47°16' W 002°12'0 0.0
2017-Sep-11 03:30N 47°16' W 002°12'3 5.2
2017-Sep-11 03:00N 47°18' W 002°09'0 0.4
2017-Sep-11 02:30N 47°18' W 002°09'2 0.4
2017-Sep-10 21:07N 47°16' W 002°12'0 0.0
2017-Sep-10 20:49N 47°16' W 002°12'0 0.0
2017-Sep-10 20:04N 47°16' W 002°12'0 0.0
2017-Sep-10 19:51N 47°16' W 002°12'0 0.0
2017-Sep-10 19:27N 47°16' W 002°12'0 0.0
2017-Sep-10 19:00N 47°16' W 002°12'0 0.0
2017-Sep-10 18:24N 47°16' W 002°12'0 0.0
2017-Sep-10 17:53N 47°16' W 002°12'0 0.0
2017-Sep-10 17:30N 47°16' W 002°12'0 0.0
2017-Sep-10 08:37N 47°16' W 002°12'0 0.0
2017-Sep-10 08:31N 47°16' W 002°12'0 0.0
2017-Sep-10 07:57N 47°16' W 002°12'0 0.0
2017-Sep-10 07:14N 47°16' W 002°12'0 0.0
2017-Sep-10 06:59N 47°16' W 002°12'3 6.1
2017-Sep-10 06:30N 47°18' W 002°09'0 0.0
2017-Sep-10 06:00N 47°18' W 002°09'0 0.0
2017-Sep-10 05:30N 47°18' W 002°09'0 0.0
2017-Sep-10 05:00N 47°18' W 002°09'0 0.0
2017-Sep-10 04:30N 47°18' W 002°09'0 0.0
2017-Sep-10 04:00N 47°18' W 002°09'0 0.0
2017-Sep-10 03:30N 47°18' W 002°09'0 0.0
2017-Sep-10 03:01N 47°18' W 002°09'0 0.0
2017-Sep-10 02:30N 47°18' W 002°09'0 0.0
2017-Sep-10 02:00N 47°18' W 002°09'0 0.0
2017-Sep-10 01:31N 47°18' W 002°09'0 0.0
2017-Sep-10 01:00N 47°18' W 002°09'0 0.0
2017-Sep-10 00:30N 47°18' W 002°09'0 0.0
2017-Sep-10 00:00N 47°18' W 002°09'0 0.0
2017-Sep-09 23:31N 47°18' W 002°09'0 0.0
2017-Sep-09 23:01N 47°18' W 002°09'0 0.0
2017-Sep-09 22:30N 47°18' W 002°09'0 0.0
2017-Sep-09 22:00N 47°18' W 002°09'0 0.0
2017-Sep-09 21:31N 47°18' W 002°09'0 0.0
2017-Sep-09 21:00N 47°18' W 002°09'  

Dump ship's entire track history